Time;durP1;ratioP1;P1;durP2;ratioP2;P2;SDS_P1;SDS_P2;PMS_P1;PMS_P2;Temp;Humidity;BMP_temperature;BMP_pressure;BME280_temperature;BME280_humidity;BME280_pressure;Samples;Min_cycle;Max_cycle;Signal;HPM_P1;HPM_P2
2022/10/17 00:01:41;;;;;;;753.67;675.30;;;14.90;99.90;;;;;;5011665;28;20484;-83
2022/10/17 00:04:08;;;;;;;748.53;669.80;;;14.90;99.90;;;;;;5008442;28;20454;-83
2022/10/17 00:06:37;;;;;;;753.33;674.87;;;15.00;99.90;;;;;;5022192;28;20451;-83
2022/10/17 00:09:04;;;;;;;755.60;677.97;;;15.10;99.90;;;;;;5028469;28;20429;-83
2022/10/17 00:11:31;;;;;;;756.83;679.57;;;15.10;99.90;;;;;;5014117;28;20449;-83
2022/10/17 00:13:57;;;;;;;759.07;681.60;;;15.10;99.90;;;;;;5008219;28;20452;-83
2022/10/17 00:16:26;;;;;;;758.60;681.90;;;15.10;99.90;;;;;;5019396;28;20453;-83
2022/10/17 00:18:52;;;;;;;778.00;701.50;;;15.00;99.90;;;;;;5028509;28;20472;-83
2022/10/17 00:21:20;;;;;;;780.37;704.20;;;15.00;99.90;;;;;;5026323;28;20472;-83
2022/10/17 00:23:48;;;;;;;780.80;704.40;;;14.90;99.90;;;;;;5028654;28;20463;-83
2022/10/17 00:26:16;;;;;;;781.00;704.57;;;15.00;99.90;;;;;;5016796;28;20530;-83
2022/10/17 00:28:45;;;;;;;773.33;697.87;;;14.80;99.90;;;;;;5008555;28;20478;-83
2022/10/17 00:31:12;;;;;;;766.30;690.63;;;14.80;99.90;;;;;;5023132;28;20979;-83
2022/10/17 00:33:39;;;;;;;757.20;681.60;;;14.80;99.90;;;;;;5027339;28;20458;-83
2022/10/17 00:36:08;;;;;;;756.90;681.10;;;14.70;99.90;;;;;;5013406;28;20508;-83
2022/10/17 00:38:36;;;;;;;752.00;676.77;;;14.80;99.90;;;;;;5008096;28;20480;-83
2022/10/17 00:41:04;;;;;;;752.67;676.47;;;14.70;99.90;;;;;;5020207;28;20475;-83
2022/10/17 00:43:49;;;;;;;747.00;671.87;;;14.80;99.90;;;;;;5028156;28;20452;-83
2022/10/17 00:46:15;;;;;;;740.40;664.03;;;14.80;99.90;;;;;;5012945;28;20450;-83
2022/10/17 00:48:43;;;;;;;755.13;677.73;;;14.80;99.90;;;;;;5012865;28;20513;-83
2022/10/17 00:51:10;;;;;;;756.07;680.10;;;14.70;99.90;;;;;;5018720;28;20525;-82
2022/10/17 00:53:39;;;;;;;756.80;680.30;;;14.60;99.90;;;;;;5013205;28;20461;-81
2022/10/17 00:56:08;;;;;;;754.03;677.50;;;14.70;99.90;;;;;;4998071;28;20450;-82
2022/10/17 00:58:36;;;;;;;745.67;669.40;;;14.70;99.90;;;;;;5003248;28;20473;-82
2022/10/17 01:01:03;;;;;;;736.63;660.47;;;14.60;99.90;;;;;;5018435;28;20504;-82
2022/10/17 01:03:30;;;;;;;744.27;667.10;;;14.60;99.90;;;;;;5018236;28;20472;-82
2022/10/17 01:05:57;;;;;;;746.80;669.90;;;14.70;99.90;;;;;;5017989;28;20453;-82
2022/10/17 01:08:24;;;;;;;759.37;682.20;;;14.60;99.90;;;;;;5017734;28;20484;-82
2022/10/17 01:10:58;;;;;;;765.57;688.40;;;14.60;99.90;;;;;;5015433;28;20478;-82
2022/10/17 01:13:33;;;;;;;759.57;682.13;;;14.60;99.90;;;;;;4998565;28;20497;-81
2022/10/17 01:16:08;;;;;;;755.50;678.10;;;14.50;99.90;;;;;;4998567;28;20461;-82
2022/10/17 01:18:45;;;;;;;758.67;682.00;;;14.60;99.90;;;;;;5006278;28;20476;-82
2022/10/17 01:21:39;;;;;;;750.20;673.37;;;14.70;99.90;;;;;;5017930;28;20483;-82
2022/10/17 01:24:47;;;;;;;765.43;688.67;;;14.70;99.90;;;;;;5006662;28;20457;-82
2022/10/17 01:27:50;;;;;;;771.80;695.53;;;14.70;99.90;;;;;;4993173;28;20520;-82
2022/10/17 01:30:58;;;;;;;772.20;696.13;;;14.80;99.90;;;;;;5000259;28;20459;-82
2022/10/17 01:33:37;;;;;;;772.83;695.97;;;14.70;99.90;;;;;;5006125;28;20445;-82
2022/10/17 01:36:11;;;;;;;766.73;691.53;;;14.70;99.90;;;;;;5022699;28;20452;-82
2022/10/17 01:38:46;;;;;;;773.97;698.10;;;14.70;99.90;;;;;;5016107;28;20569;-82
2022/10/17 01:41:21;;;;;;;780.17;704.63;;;14.70;99.90;;;;;;5002430;28;20674;-82
2022/10/17 01:43:53;;;;;;;767.67;692.50;;;14.60;99.90;;;;;;5007390;28;20543;-82
2022/10/17 01:46:26;;;;;;;765.03;690.10;;;14.70;99.90;;;;;;5021520;28;20471;-82
2022/10/17 01:48:55;;;;;;;773.93;699.50;;;14.70;99.90;;;;;;5015343;28;20474;-82
2022/10/17 01:51:24;;;;;;;770.03;695.63;;;14.60;99.90;;;;;;5002806;28;20450;-82
2022/10/17 01:53:56;;;;;;;770.57;696.23;;;14.60;99.90;;;;;;5006960;28;20484;-81
2022/10/17 01:56:26;;;;;;;775.13;700.87;;;14.60;99.90;;;;;;5030764;28;20454;-80
2022/10/17 01:58:57;;;;;;;784.53;709.73;;;14.60;99.90;;;;;;5018266;28;20470;-80
2022/10/17 02:04:25;;;;;;;797.43;723.40;;;14.60;99.90;;;;;;5026018;28;20463;-81
2022/10/17 02:06:52;;;;;;;790.97;717.10;;;14.50;99.90;;;;;;5025003;28;20473;-81
2022/10/17 02:09:22;;;;;;;804.63;730.40;;;14.40;99.90;;;;;;5003879;28;20974;-82
2022/10/17 02:12:09;;;;;;;781.93;707.50;;;14.50;99.90;;;;;;5007614;28;20450;-82
2022/10/17 02:14:47;;;;;;;769.87;695.57;;;14.50;99.90;;;;;;5020030;28;20453;-81
2022/10/17 02:17:21;;;;;;;780.43;706.07;;;14.40;99.90;;;;;;5010822;28;20473;-82
2022/10/17 02:19:57;;;;;;;772.73;698.40;;;14.40;99.90;;;;;;5001019;28;20457;-81
2022/10/17 02:22:34;;;;;;;767.43;693.03;;;14.30;99.90;;;;;;5010859;28;20527;-82
2022/10/17 02:25:07;;;;;;;757.10;682.20;;;14.40;99.90;;;;;;5019643;28;20953;-82
2022/10/17 02:27:43;;;;;;;755.40;680.40;;;14.30;99.90;;;;;;5008593;28;20998;-82
2022/10/17 02:30:15;;;;;;;761.27;686.10;;;14.40;99.90;;;;;;5001585;28;20845;-81
2022/10/17 02:32:49;;;;;;;755.80;680.23;;;14.30;99.90;;;;;;5012388;28;20472;-81
2022/10/17 02:35:17;;;;;;;743.67;668.57;;;14.40;99.90;;;;;;5019318;28;20567;-82
2022/10/17 02:37:47;;;;;;;748.30;674.40;;;14.30;99.90;;;;;;5008746;28;20477;-82
2022/10/17 02:40:16;;;;;;;746.97;673.23;;;14.40;99.90;;;;;;4999980;28;20958;-82
2022/10/17 02:42:45;;;;;;;752.53;678.80;;;14.40;99.90;;;;;;5014807;28;20447;-82
2022/10/17 02:45:15;;;;;;;746.10;673.30;;;14.40;99.90;;;;;;5019205;28;20449;-82
2022/10/17 02:47:54;;;;;;;747.13;674.43;;;14.40;99.90;;;;;;5005741;28;20474;-81
2022/10/17 02:50:27;;;;;;;749.83;676.27;;;14.40;99.90;;;;;;5000412;28;20476;-81
2022/10/17 02:52:58;;;;;;;751.60;677.80;;;14.40;99.90;;;;;;5015617;28;20450;-81
2022/10/17 02:55:29;;;;;;;742.17;669.00;;;14.40;99.90;;;;;;5019011;28;20449;-81
2022/10/17 02:58:00;;;;;;;739.10;666.83;;;14.30;99.90;;;;;;5004950;28;20474;-82
2022/10/17 03:00:28;;;;;;;743.07;670.23;;;14.40;99.90;;;;;;4999951;28;20492;-81
2022/10/17 03:02:56;;;;;;;751.67;678.77;;;14.40;99.90;;;;;;5001139;28;20455;-82
2022/10/17 03:05:26;;;;;;;755.10;682.50;;;14.40;99.90;;;;;;4999756;28;20454;-81
2022/10/17 03:07:54;;;;;;;761.47;688.97;;;14.30;99.90;;;;;;5011739;28;20484;-81
2022/10/17 03:10:21;;;;;;;763.33;691.30;;;14.30;99.90;;;;;;5019892;28;20614;-81
2022/10/17 03:12:48;;;;;;;752.37;680.17;;;14.40;99.90;;;;;;5007493;28;20450;-81
2022/10/17 03:15:15;;;;;;;758.30;686.13;;;14.40;99.90;;;;;;4998911;28;20485;-81
2022/10/17 03:17:41;;;;;;;751.33;679.73;;;14.40;99.90;;;;;;5002214;28;20469;-81
2022/10/17 03:20:10;;;;;;;758.80;687.57;;;14.40;99.90;;;;;;5002327;28;20450;-82
2022/10/17 03:22:37;;;;;;;758.20;687.10;;;14.30;99.90;;;;;;5021680;28;20488;-81
2022/10/17 03:25:04;;;;;;;756.47;684.50;;;14.40;99.90;;;;;;5018165;28;20810;-80
2022/10/17 03:27:31;;;;;;;758.87;687.90;;;14.40;99.90;;;;;;5006708;28;20472;-81
2022/10/17 03:29:57;;;;;;;759.50;688.13;;;14.40;99.90;;;;;;5010475;28;20458;-81
2022/10/17 03:32:24;;;;;;;758.80;687.77;;;14.40;99.90;;;;;;5003062;28;20445;-82
2022/10/17 03:34:51;;;;;;;768.77;697.53;;;14.50;99.90;;;;;;5024246;28;20526;-81
2022/10/17 03:37:19;;;;;;;760.50;690.30;;;14.50;99.90;;;;;;5032683;28;20884;-81
2022/10/17 03:39:46;;;;;;;759.57;689.87;;;14.50;99.90;;;;;;5018780;28;20911;-82
2022/10/17 03:42:12;;;;;;;756.27;688.07;;;14.60;99.90;;;;;;5015881;28;20476;-82
2022/10/17 03:44:39;;;;;;;755.47;686.87;;;14.70;99.90;;;;;;5018281;28;20480;-81
2022/10/17 03:47:06;;;;;;;761.23;693.53;;;14.70;99.90;;;;;;5010496;28;20470;-81
2022/10/17 03:49:32;;;;;;;760.23;693.33;;;14.70;99.90;;;;;;5022646;28;20810;-81
2022/10/17 03:51:59;;;;;;;771.13;704.07;;;14.80;99.90;;;;;;5037442;28;20480;-81
2022/10/17 03:54:27;;;;;;;776.40;710.20;;;14.80;99.90;;;;;;5016754;28;21114;-81
2022/10/17 03:56:54;;;;;;;783.60;718.60;;;14.80;99.90;;;;;;5017464;28;20469;-82
2022/10/17 03:59:21;;;;;;;763.07;699.10;;;14.80;99.90;;;;;;5018003;28;20463;-82
2022/10/17 04:01:48;;;;;;;761.97;699.13;;;14.90;99.90;;;;;;5016147;28;20480;-81
2022/10/17 04:04:15;;;;;;;751.97;689.73;;;14.90;99.90;;;;;;5016981;28;20483;-82
2022/10/17 04:06:41;;;;;;;750.73;690.27;;;14.90;99.90;;;;;;5018141;28;20461;-82
2022/10/17 04:09:09;;;;;;;759.70;700.10;;;14.90;99.90;;;;;;5004966;28;20956;-81
2022/10/17 04:11:38;;;;;;;773.20;714.00;;;14.90;99.90;;;;;;5010082;28;20460;-81
2022/10/17 04:14:04;;;;;;;774.93;716.07;;;14.90;99.90;;;;;;5002286;28;20856;-81
2022/10/17 04:16:31;;;;;;;770.60;711.90;;;14.80;99.90;;;;;;5007791;28;20456;-81
2022/10/17 04:18:59;;;;;;;777.27;718.93;;;14.80;99.90;;;;;;4999987;28;20541;-82
2022/10/17 04:21:31;;;;;;;775.67;716.37;;;14.80;99.90;;;;;;4999997;28;20474;-82
2022/10/17 04:23:59;;;;;;;765.50;706.10;;;14.80;99.90;;;;;;5012258;28;20954;-80
2022/10/17 04:26:27;;;;;;;763.97;706.27;;;14.80;99.90;;;;;;4992431;28;20999;-82
2022/10/17 04:28:55;;;;;;;769.23;713.03;;;14.80;99.90;;;;;;5012000;28;20519;-80
2022/10/17 04:31:21;;;;;;;765.23;710.07;;;14.80;99.90;;;;;;4997159;28;20461;-80
2022/10/17 04:33:49;;;;;;;752.63;699.43;;;14.90;99.90;;;;;;5008251;28;20453;-81
2022/10/17 04:36:18;;;;;;;758.07;704.67;;;14.90;99.90;;;;;;5017136;28;20489;-82
2022/10/17 04:38:44;;;;;;;757.37;704.67;;;14.90;99.90;;;;;;5014471;28;20478;-82
2022/10/17 04:41:13;;;;;;;765.83;712.10;;;14.80;99.90;;;;;;5014030;28;20459;-82
2022/10/17 04:43:40;;;;;;;759.43;704.03;;;14.70;99.90;;;;;;5007211;28;20454;-81
2022/10/17 04:46:10;;;;;;;760.30;705.23;;;14.80;99.90;;;;;;5005100;28;20461;-80
2022/10/17 04:48:38;;;;;;;762.57;707.53;;;14.80;99.90;;;;;;5004203;28;20900;-81
2022/10/17 04:51:09;;;;;;;749.60;695.63;;;14.80;99.90;;;;;;5003730;28;20457;-82
2022/10/17 04:53:38;;;;;;;745.27;691.80;;;14.80;99.90;;;;;;5013289;28;20463;-83
2022/10/17 04:56:09;;;;;;;745.43;692.63;;;14.80;99.90;;;;;;5003954;28;20471;-81
2022/10/17 04:58:35;;;;;;;738.67;685.40;;;14.80;99.90;;;;;;5006684;28;20995;-82
2022/10/17 05:01:05;;;;;;;734.67;682.77;;;14.90;99.90;;;;;;5012411;28;20453;-81
2022/10/17 05:03:33;;;;;;;735.23;684.57;;;15.00;99.90;;;;;;5019648;28;20468;-79
2022/10/17 05:06:04;;;;;;;730.67;680.57;;;14.90;99.90;;;;;;5018868;28;20522;-80
2022/10/17 05:08:30;;;;;;;725.57;675.57;;;14.90;99.90;;;;;;5004010;28;20867;-81
2022/10/17 05:10:57;;;;;;;726.73;676.87;;;14.90;99.90;;;;;;5023579;28;20448;-81
2022/10/17 05:13:24;;;;;;;724.67;675.37;;;14.90;99.90;;;;;;5037047;28;20455;-82
2022/10/17 05:15:51;;;;;;;732.17;682.97;;;14.90;99.90;;;;;;5037781;28;20866;-81
2022/10/17 05:18:17;;;;;;;717.70;669.33;;;15.00;99.90;;;;;;5040387;28;20470;-81
2022/10/17 05:20:45;;;;;;;709.03;661.53;;;15.10;99.90;;;;;;5002342;28;20459;-81
2022/10/17 05:23:12;;;;;;;714.40;669.10;;;15.10;99.90;;;;;;5013786;28;20470;-81
2022/10/17 05:25:39;;;;;;;696.10;651.37;;;15.10;99.90;;;;;;5011094;28;20455;-81
2022/10/17 05:28:06;;;;;;;701.43;657.27;;;15.20;99.90;;;;;;5004480;28;20474;-82
2022/10/17 05:30:32;;;;;;;699.13;656.07;;;15.10;99.90;;;;;;5001397;28;20451;-81
2022/10/17 05:32:59;;;;;;;688.97;647.97;;;15.10;99.90;;;;;;5015298;28;20457;-81
2022/10/17 05:35:26;;;;;;;683.53;643.40;;;15.10;99.90;;;;;;5001110;28;20458;-81
2022/10/17 05:37:54;;;;;;;668.93;630.13;;;15.10;99.90;;;;;;5001305;28;20477;-80
2022/10/17 05:40:21;;;;;;;660.93;623.70;;;15.20;99.90;;;;;;5002543;28;20458;-82
2022/10/17 05:42:48;;;;;;;646.17;611.40;;;15.20;99.90;;;;;;5021563;28;21001;-82
2022/10/17 05:45:15;;;;;;;640.10;605.27;;;15.20;99.90;;;;;;5030170;28;20820;-81
2022/10/17 05:47:42;;;;;;;636.47;602.37;;;15.10;99.90;;;;;;5008368;28;20850;-82
2022/10/17 05:50:09;;;;;;;649.50;614.50;;;15.00;99.90;;;;;;5011066;28;20457;-81
2022/10/17 05:52:36;;;;;;;654.43;618.67;;;15.00;99.90;;;;;;5012003;28;20478;-81
2022/10/17 05:55:05;;;;;;;661.57;624.37;;;15.00;99.90;;;;;;5005798;28;20964;-82
2022/10/17 05:57:32;;;;;;;668.67;630.07;;;15.00;99.90;;;;;;5017075;28;21018;-81
2022/10/17 05:59:59;;;;;;;674.77;636.43;;;14.90;99.90;;;;;;5005800;28;20454;-82
2022/10/17 06:02:26;;;;;;;676.63;637.37;;;15.00;99.90;;;;;;5001220;28;20477;-81
2022/10/17 06:04:53;;;;;;;678.50;639.53;;;14.90;99.90;;;;;;5002107;28;20459;-81
2022/10/17 06:07:20;;;;;;;685.50;645.23;;;14.90;99.90;;;;;;5030500;22;20488;-85
2022/10/17 06:09:47;;;;;;;687.97;647.90;;;14.90;99.90;;;;;;5039438;28;20844;-85
2022/10/17 06:12:15;;;;;;;685.10;644.53;;;14.80;99.90;;;;;;5047220;28;20462;-85
2022/10/17 06:14:41;;;;;;;707.43;663.93;;;14.70;99.90;;;;;;5042287;28;20527;-86
2022/10/17 06:17:08;;;;;;;725.53;678.23;;;14.70;99.90;;;;;;5040315;28;20457;-83
2022/10/17 06:19:35;;;;;;;733.40;682.90;;;14.60;99.90;;;;;;5034979;28;21027;-85
2022/10/17 06:22:02;;;;;;;739.27;687.50;;;14.70;99.90;;;;;;5032749;28;20964;-85
2022/10/17 06:24:29;;;;;;;732.20;681.80;;;14.80;99.90;;;;;;5034482;28;20452;-85
2022/10/17 06:26:56;;;;;;;722.47;674.57;;;14.90;99.90;;;;;;5033442;28;20456;-84
2022/10/17 06:29:24;;;;;;;701.80;656.10;;;14.90;99.90;;;;;;5025734;28;20559;-85
2022/10/17 06:31:51;;;;;;;675.40;633.50;;;15.00;99.90;;;;;;5030604;28;20448;-85
2022/10/17 06:34:18;;;;;;;644.50;607.67;;;15.20;99.90;;;;;;5033795;28;20452;-83
2022/10/17 06:36:45;;;;;;;599.83;567.43;;;15.20;99.90;;;;;;5034062;28;20460;-85
2022/10/17 06:39:12;;;;;;;563.50;534.90;;;15.30;99.90;;;;;;5034450;28;20485;-85
2022/10/17 06:41:40;;;;;;;529.50;503.30;;;15.30;99.90;;;;;;5033997;28;20456;-85
2022/10/17 06:44:09;;;;;;;524.60;499.20;;;15.40;99.90;;;;;;5033940;28;20457;-83
2022/10/17 06:46:38;;;;;;;511.33;486.47;;;15.40;99.90;;;;;;5033255;28;20451;-84
2022/10/17 06:49:05;;;;;;;504.27;480.20;;;15.40;99.90;;;;;;5033630;28;20476;-84
2022/10/17 06:51:34;;;;;;;517.63;493.03;;;15.40;99.90;;;;;;5035364;28;20972;-85
2022/10/17 06:54:01;;;;;;;534.33;508.63;;;15.50;99.90;;;;;;5032878;28;20951;-84
2022/10/17 06:56:27;;;;;;;542.93;516.90;;;15.50;99.90;;;;;;5032184;28;20453;-85
2022/10/17 06:58:54;;;;;;;540.70;514.70;;;15.60;99.90;;;;;;5029785;28;20477;-84
2022/10/17 07:01:21;;;;;;;536.83;510.67;;;15.70;99.90;;;;;;5032810;28;20837;-84
2022/10/17 07:03:49;;;;;;;539.23;513.13;;;15.80;99.90;;;;;;5031879;28;21087;-84
2022/10/17 07:06:16;;;;;;;526.90;501.20;;;15.80;99.90;;;;;;5030029;28;20503;-84
2022/10/17 07:08:44;;;;;;;513.63;489.67;;;15.90;99.90;;;;;;5031419;28;20540;-85
2022/10/17 07:11:12;;;;;;;442.03;422.13;;;16.00;99.90;;;;;;5013863;28;20454;-85
2022/10/17 07:13:39;;;;;;;400.43;382.47;;;16.00;99.90;;;;;;5013454;28;20462;-85
2022/10/17 07:16:06;;;;;;;375.70;359.70;;;16.10;99.90;;;;;;5033884;28;20458;-85
2022/10/17 07:18:33;;;;;;;338.73;324.10;;;16.20;99.90;;;;;;5033164;28;21015;-84
2022/10/17 07:21:02;;;;;;;309.93;296.50;;;16.30;99.90;;;;;;5032458;28;20461;-85
2022/10/17 07:23:29;;;;;;;267.37;256.57;;;16.40;99.90;;;;;;5031805;28;20478;-84
2022/10/17 07:26:00;;;;;;;245.57;235.50;;;16.40;99.90;;;;;;5032241;28;20452;-86
2022/10/17 07:28:27;;;;;;;200.70;192.63;;;16.50;99.90;;;;;;5034693;28;20486;-85
2022/10/17 07:30:54;;;;;;;175.47;168.43;;;16.60;99.90;;;;;;5034628;28;20962;-82
2022/10/17 07:33:21;;;;;;;170.00;163.50;;;16.70;99.90;;;;;;5036377;28;20955;-84
2022/10/17 07:35:47;;;;;;;127.50;122.60;;;16.80;99.90;;;;;;5033358;28;20461;-84
2022/10/17 07:38:15;;;;;;;113.10;108.30;;;16.80;99.90;;;;;;5032889;28;20481;-84
2022/10/17 07:40:42;;;;;;;98.00;93.57;;;17.00;99.90;;;;;;5033326;28;20883;-84
2022/10/17 07:43:09;;;;;;;77.17;73.13;;;17.00;99.90;;;;;;5032757;28;20483;-84
2022/10/17 07:45:36;;;;;;;46.70;44.20;;;17.10;99.90;;;;;;5030622;28;20454;-84
2022/10/17 07:48:02;;;;;;;43.70;41.50;;;17.10;99.90;;;;;;5032723;28;20847;-84
2022/10/17 07:50:30;;;;;;;54.07;50.97;;;17.20;99.90;;;;;;5032752;28;20456;-85
2022/10/17 07:52:57;;;;;;;42.23;40.23;;;17.30;99.90;;;;;;5032516;28;21056;-85
2022/10/17 07:55:25;;;;;;;25.73;23.83;;;17.30;99.90;;;;;;5033551;28;20884;-87
2022/10/17 07:57:52;;;;;;;31.47;29.27;;;17.50;99.90;;;;;;5034173;28;20486;-85
2022/10/17 08:00:19;;;;;;;20.80;19.50;;;17.60;99.90;;;;;;5035706;28;20459;-85
2022/10/17 08:02:45;;;;;;;14.93;13.73;;;17.60;99.90;;;;;;5034124;28;20481;-85
2022/10/17 08:05:12;;;;;;;14.33;12.87;;;17.60;99.90;;;;;;5032545;28;20463;-85
2022/10/17 08:07:40;;;;;;;15.20;10.13;;;17.80;99.90;;;;;;5033591;28;20456;-87
2022/10/17 08:10:07;;;;;;;11.10;9.70;;;17.90;99.90;;;;;;5033595;28;20226;-84
2022/10/17 08:12:35;;;;;;;15.17;9.50;;;18.00;99.90;;;;;;5033446;28;20932;-84
2022/10/17 08:15:02;;;;;;;11.47;10.00;;;18.10;99.90;;;;;;5032420;28;20448;-85
2022/10/17 08:17:29;;;;;;;8.43;6.23;;;18.30;99.90;;;;;;5032906;28;20973;-86
2022/10/17 08:19:56;;;;;;;10.60;6.13;;;18.30;99.90;;;;;;5032749;28;20462;-85
2022/10/17 08:22:22;;;;;;;9.67;7.27;;;18.40;99.90;;;;;;5032675;28;20487;-86
2022/10/17 08:24:49;;;;;;;9.30;6.60;;;18.50;99.90;;;;;;5032504;28;20450;-83
2022/10/17 08:27:22;;;;;;;10.27;5.20;;;18.70;99.90;;;;;;5034250;28;20465;-84
2022/10/17 08:29:51;;;;;;;11.37;6.00;;;18.70;99.90;;;;;;5034217;28;20455;-84
2022/10/17 08:32:18;;;;;;;8.97;5.90;;;18.90;99.90;;;;;;5032985;28;20463;-84
2022/10/17 08:34:45;;;;;;;17.80;6.03;;;19.10;99.90;;;;;;5032935;28;20456;-84
2022/10/17 08:37:12;;;;;;;13.13;5.77;;;19.20;99.90;;;;;;5033091;28;20454;-84
2022/10/17 08:39:39;;;;;;;10.33;5.50;;;19.40;99.90;;;;;;5031998;28;20465;-84
2022/10/17 08:42:27;;;;;;;19.20;5.70;;;19.60;99.90;;;;;;5031963;28;20453;-84
2022/10/17 08:45:02;;;;;;;7.60;4.80;;;19.50;99.90;;;;;;5029319;28;20453;-84
2022/10/17 08:47:35;;;;;;;9.27;5.40;;;19.50;99.90;;;;;;5032092;28;20450;-84
2022/10/17 08:50:06;;;;;;;11.50;5.23;;;19.60;99.90;;;;;;5031923;28;20459;-84
2022/10/17 08:52:40;;;;;;;10.63;5.63;;;19.60;99.90;;;;;;5033704;28;20470;-86
2022/10/17 08:55:16;;;;;;;8.93;4.97;;;19.70;99.90;;;;;;5031997;28;20457;-84
2022/10/17 08:57:43;;;;;;;12.27;6.00;;;19.90;99.90;;;;;;5031862;28;20469;-84
2022/10/17 09:00:18;;;;;;;10.90;5.87;;;20.10;99.90;;;;;;5031870;28;20452;-83
2022/10/17 09:02:53;;;;;;;6.23;4.40;;;20.40;99.90;;;;;;5032237;28;20508;-85
2022/10/17 09:05:35;;;;;;;14.77;5.70;;;20.50;99.90;;;;;;5032083;28;20468;-85
2022/10/17 09:08:14;;;;;;;9.70;4.90;;;20.70;99.90;;;;;;5031632;28;20867;-84
2022/10/17 09:10:53;;;;;;;10.17;4.80;;;21.00;99.90;;;;;;5031191;28;20458;-85
2022/10/17 09:13:43;;;;;;;7.80;5.17;;;21.00;99.90;;;;;;5031646;28;20447;-84
2022/10/17 09:16:46;;;;;;;7.90;4.63;;;21.10;99.40;;;;;;5030573;28;20877;-86
2022/10/17 09:19:20;;;;;;;12.53;4.67;;;21.50;98.80;;;;;;5031586;28;20475;-85
2022/10/17 09:21:53;;;;;;;7.47;4.00;;;21.70;97.70;;;;;;5032442;28;20456;-84
2022/10/17 09:24:26;;;;;;;7.73;4.53;;;21.70;97.10;;;;;;5032048;28;20479;-85
2022/10/17 09:26:55;;;;;;;12.43;4.00;;;21.70;96.70;;;;;;5032827;28;20917;-84
2022/10/17 09:29:24;;;;;;;7.83;4.03;;;21.60;97.00;;;;;;5033160;28;20481;-85
2022/10/17 09:32:02;;;;;;;7.83;4.20;;;21.40;96.90;;;;;;5032537;28;20486;-84
2022/10/17 09:34:31;;;;;;;11.80;3.77;;;21.40;97.50;;;;;;5030961;28;20449;-84
2022/10/17 09:36:59;;;;;;;7.30;4.93;;;21.20;98.10;;;;;;5031613;28;20452;-84
2022/10/17 09:39:30;;;;;;;10.40;4.37;;;21.20;98.20;;;;;;5032295;28;20489;-85
2022/10/17 09:41:59;;;;;;;7.63;3.60;;;21.10;97.80;;;;;;5032557;28;20459;-85
2022/10/17 09:44:30;;;;;;;9.53;4.50;;;21.00;97.90;;;;;;5030241;28;20494;-85
2022/10/17 09:47:09;;;;;;;16.47;5.60;;;20.90;98.40;;;;;;5032417;28;20546;-85
2022/10/17 09:49:38;;;;;;;10.30;4.63;;;20.80;98.30;;;;;;5035689;28;20483;-84
2022/10/17 09:52:12;;;;;;;11.60;5.33;;;20.90;98.30;;;;;;5036345;28;20456;-86
2022/10/17 09:54:43;;;;;;;11.73;5.43;;;20.80;98.50;;;;;;5034901;28;20457;-84
2022/10/17 09:57:11;;;;;;;12.30;4.80;;;20.90;98.30;;;;;;5035912;28;20464;-85
2022/10/17 09:59:41;;;;;;;6.83;4.70;;;20.80;98.40;;;;;;5035633;28;20540;-85
2022/10/17 10:02:16;;;;;;;10.77;4.70;;;20.70;98.40;;;;;;5034726;28;20955;-85
2022/10/17 10:05:00;;;;;;;7.87;5.13;;;20.60;99.10;;;;;;5025567;28;20488;-84
2022/10/17 10:07:29;;;;;;;13.33;5.13;;;20.60;98.70;;;;;;5013421;28;20457;-85
2022/10/17 10:09:57;;;;;;;8.93;4.73;;;20.50;99.20;;;;;;5014036;28;20456;-85
2022/10/17 10:12:26;;;;;;;7.80;4.60;;;20.60;99.30;;;;;;5013587;28;20451;-85
2022/10/17 10:14:53;;;;;;;6.80;4.40;;;20.50;99.40;;;;;;5013235;28;20453;-85
2022/10/17 10:17:34;;;;;;;8.90;5.20;;;20.50;99.40;;;;;;5014700;28;20719;-84
2022/10/17 10:20:02;;;;;;;10.47;5.30;;;20.50;99.30;;;;;;5012086;28;20453;-84
2022/10/17 10:22:28;;;;;;;7.73;5.00;;;20.50;99.30;;;;;;5013228;28;20459;-85
2022/10/17 10:25:08;;;;;;;8.10;3.97;;;20.50;99.10;;;;;;5011525;28;20895;-85
2022/10/17 10:27:35;;;;;;;15.63;5.30;;;20.50;98.90;;;;;;5014273;28;20981;-85
2022/10/17 10:30:03;;;;;;;8.80;5.27;;;20.60;99.20;;;;;;5014482;28;20462;-85
2022/10/17 10:32:33;;;;;;;13.73;4.70;;;20.60;99.40;;;;;;5012100;28;20849;-85
2022/10/17 10:35:03;;;;;;;8.97;5.20;;;20.70;99.90;;;;;;5012910;28;20450;-85
2022/10/17 10:37:36;;;;;;;8.97;5.30;;;20.60;99.70;;;;;;5014494;28;20481;-85
2022/10/17 10:40:05;;;;;;;11.80;5.47;;;20.50;99.90;;;;;;5012433;28;20466;-85
2022/10/17 10:42:33;;;;;;;9.93;5.80;;;20.40;99.90;;;;;;5013053;28;20460;-85
2022/10/17 10:45:04;;;;;;;7.83;4.77;;;20.30;99.90;;;;;;5011659;28;20487;-84
2022/10/17 10:47:33;;;;;;;8.40;5.47;;;20.20;99.90;;;;;;5012435;28;20462;-84
2022/10/17 10:50:26;;;;;;;10.90;5.77;;;20.20;99.90;;;;;;5012775;28;20455;-85
2022/10/17 10:53:04;;;;;;;9.53;5.93;;;20.30;99.90;;;;;;5014092;28;20458;-85
2022/10/17 10:55:36;;;;;;;11.13;6.83;;;20.10;99.90;;;;;;5011099;28;20863;-84
2022/10/17 10:58:09;;;;;;;9.07;6.40;;;20.10;99.90;;;;;;5012797;28;20476;-85
2022/10/17 11:00:38;;;;;;;7.87;5.10;;;20.10;99.90;;;;;;5014038;28;20466;-85
2022/10/17 11:03:14;;;;;;;11.37;5.40;;;20.10;99.90;;;;;;5012153;28;20455;-84
2022/10/17 11:05:44;;;;;;;11.80;5.83;;;20.00;99.90;;;;;;5012408;28;20465;-85
2022/10/17 11:08:20;;;;;;;9.40;6.20;;;20.00;99.90;;;;;;5015508;28;20488;-84
2022/10/17 11:11:01;;;;;;;10.43;6.27;;;19.90;99.90;;;;;;5013827;28;20517;-84
2022/10/17 11:13:32;;;;;;;11.10;5.63;;;20.10;99.90;;;;;;5013937;28;20454;-84
2022/10/17 11:16:04;;;;;;;7.20;5.47;;;20.10;99.90;;;;;;5013202;28;20826;-85
2022/10/17 12:24:39;;;;;;;7.70;4.87;;;20.10;99.90;;;;;;5132599;27;20550;-85
2022/10/17 12:27:36;;;;;;;10.70;4.50;;;20.30;99.90;;;;;;5089424;28;20480;-86
2022/10/17 12:30:14;;;;;;;9.50;4.33;;;20.20;99.90;;;;;;5089352;28;20452;-84
2022/10/17 12:33:01;;;;;;;10.80;4.20;;;20.10;99.10;;;;;;5087721;28;20504;-85
2022/10/17 12:35:29;;;;;;;7.10;3.60;;;20.10;98.60;;;;;;5097612;22;20531;-85
2022/10/17 12:38:21;;;;;;;6.40;3.43;;;20.20;98.00;;;;;;5031796;28;20457;-85
2022/10/17 12:40:54;;;;;;;10.17;3.53;;;20.10;98.50;;;;;;5029989;28;20450;-85
2022/10/17 12:43:56;;;;;;;7.90;3.63;;;20.20;98.00;;;;;;5029199;28;20821;-85
2022/10/17 12:46:57;;;;;;;6.60;2.97;;;20.30;97.90;;;;;;5027942;28;20479;-85
2022/10/17 12:49:48;;;;;;;6.73;3.47;;;20.30;97.80;;;;;;5029490;28;20453;-85
2022/10/17 12:52:25;;;;;;;6.87;3.00;;;20.30;97.50;;;;;;5029833;28;21003;-85
2022/10/17 12:54:56;;;;;;;7.00;3.10;;;20.30;97.60;;;;;;5029633;28;20835;-85
2022/10/17 12:57:30;;;;;;;7.77;4.00;;;20.20;97.60;;;;;;5029797;28;20447;-85
2022/10/17 12:59:57;;;;;;;6.20;3.07;;;20.30;97.70;;;;;;5039460;28;20472;-86
2022/10/17 13:02:27;;;;;;;7.40;2.93;;;20.20;97.60;;;;;;5048055;28;20432;-85
2022/10/17 13:05:06;;;;;;;7.73;3.80;;;20.30;97.00;;;;;;5047015;28;20498;-87
2022/10/17 13:07:35;;;;;;;6.90;3.43;;;20.40;97.60;;;;;;5048386;28;20479;-85
2022/10/17 13:10:03;;;;;;;8.10;3.87;;;20.40;97.20;;;;;;5038821;28;20438;-86
2022/10/17 13:12:35;;;;;;;5.80;3.00;;;20.50;97.30;;;;;;5029097;28;20484;-86
2022/10/17 13:15:07;;;;;;;8.80;3.20;;;20.50;97.20;;;;;;5028828;28;20506;-86
2022/10/17 13:17:33;;;;;;;14.80;3.50;;;20.70;96.90;;;;;;5029041;28;20458;-85
2022/10/17 13:20:00;;;;;;;7.10;4.00;;;20.70;96.80;;;;;;5029365;28;20457;-86
2022/10/17 13:22:29;;;;;;;8.40;3.00;;;20.70;96.00;;;;;;5028980;28;20799;-85
2022/10/17 13:25:07;;;;;;;10.43;3.53;;;20.70;96.30;;;;;;5019659;28;20508;-86
2022/10/17 13:27:36;;;;;;;10.40;2.47;;;20.70;96.40;;;;;;5017944;28;20462;-87
2022/10/17 13:30:23;;;;;;;10.00;3.60;;;20.70;96.80;;;;;;5016623;28;20812;-85
2022/10/17 13:32:50;;;;;;;9.53;3.10;;;20.60;96.80;;;;;;5018066;28;20511;-85
2022/10/17 13:35:23;;;;;;;6.67;3.00;;;20.60;96.80;;;;;;5017356;28;20484;-85
2022/10/17 13:37:51;;;;;;;7.23;3.13;;;20.50;96.60;;;;;;5016099;28;20456;-85
2022/10/17 13:40:19;;;;;;;8.27;2.80;;;20.60;96.50;;;;;;5014645;28;20462;-86
2022/10/17 13:42:48;;;;;;;8.27;3.03;;;20.80;96.20;;;;;;5015381;28;20456;-86
2022/10/17 13:45:21;;;;;;;9.47;2.87;;;20.80;96.00;;;;;;5015513;28;20477;-85
2022/10/17 13:47:48;;;;;;;7.53;2.40;;;20.80;96.10;;;;;;5016137;28;20471;-85